WetterOnline ( http://www.wetteronline.de )

Wetter aktuell Schongau

Aktuelles Wetter: Hohenpeißenberg (986m)

6-stündlich | Neueste Meldungen
Ortszeit Temperatur Wetter
Mi, 21.11. 7:00 -1.3° C wolkenlos
Mi, 21.11. 1:00 0.9° C wolkenlos
Di, 20.11. 19:00 -1.0° C wolkenlos
Di, 20.11. 13:00 -0.6° C wolkig
Di, 20.11. 7:00 -4.2° C Nebel mit Raueis
Di, 20.11. 1:00 -4.0° C Nebel mit Raueis
Mo, 19.11. 19:00 -3.8° C Nebel mit Raueis
Mo, 19.11. 13:00 -4.3° C Nebel mit Raueis
Ortszeit Temperatur Wetter
Mi, 21.11. 12:30 -3.4° C Nebel mit Raueis
Mi, 21.11. 12:20 -3.4° C Nebel
Mi, 21.11. 12:10 -3.5° C Nebel
Mi, 21.11. 12:00 -3.4° C Nebel mit Raueis
Mi, 21.11. 11:50 -3.4° C Nebel
Mi, 21.11. 11:40 -3.5° C Nebel
Mi, 21.11. 11:30 -3.5° C Nebel mit Raueis
Mi, 21.11. 11:00 -4.0° C Nebel mit Raueis
Mi, 21.11. 10:30 -3.4° C bedeckt
Mi, 21.11. 10:00 -4.1° C Nebel
Mi, 21.11. 9:30 -4.3° C Nebel
Ortszeit Relative Feuchte Sichtweite
Mi, 21.11. 7:00 83% >70 km
Mi, 21.11. 1:00 72% 70 km
Di, 20.11. 19:00 95% 20 km
Di, 20.11. 13:00 94% 9 km
Di, 20.11. 7:00 96% 100 m
Di, 20.11. 1:00 97% 100 m
Mo, 19.11. 19:00 96% <100 m
Mo, 19.11. 13:00 96% 0.3 km
Ortszeit Relative Feuchte Sichtweite
Mi, 21.11. 12:30 97% 100 m
Mi, 21.11. 12:20 97% -
Mi, 21.11. 12:10 96% -
Mi, 21.11. 12:00 96% 100 m
Mi, 21.11. 11:50 96% -
Mi, 21.11. 11:40 96% -
Mi, 21.11. 11:30 96% 100 m
Mi, 21.11. 11:00 96% 100 m
Mi, 21.11. 10:30 95% 0.2 km
Mi, 21.11. 10:00 97% 100 m
Mi, 21.11. 9:30 97% <100 m
Ortszeit Niederschlagsmenge Niederschlagsart
Mi, 21.11. 7:00 0.0 l/m2 in 12 Std. -
Mi, 21.11. 1:00 0.0 l/m2 in 6 Std. -
Di, 20.11. 19:00 0.0 l/m2 in 12 Std. -
Di, 20.11. 13:00 0.0 l/m2 in 6 Std. Nebel
Di, 20.11. 7:00 0.0 l/m2 in 12 Std. Nebel
Di, 20.11. 1:00 0.0 l/m2 in 6 Std. Nebel
Mo, 19.11. 19:00 0.1 l/m2 in 12 Std. Nebel
Mo, 19.11. 13:00 0.1 l/m2 in 6 Std. Schnee, Nebel
Ortszeit Niederschlagsmenge Niederschlagsart
Mi, 21.11. 12:30 0.0 l/m2 in 1 Std. -
Mi, 21.11. 12:20 keine Meldung -
Mi, 21.11. 12:10 keine Meldung -
Mi, 21.11. 12:00 0.0 l/m2 in 1 Std. Nebel
Mi, 21.11. 11:50 keine Meldung -
Mi, 21.11. 11:40 keine Meldung -
Mi, 21.11. 11:30 0.0 l/m2 in 1 Std. -
Mi, 21.11. 11:00 0.0 l/m2 in 1 Std. Nebel
Mi, 21.11. 10:30 0.0 l/m2 in 1 Std. -
Mi, 21.11. 10:00 0.0 l/m2 in 1 Std. Nebel
Mi, 21.11. 9:30 0.0 l/m2 in 1 Std. -
Ortszeit Stärke Spitze Richtung
km/h Bft. km/h Grad Sektor
Mi, 21.11. 7:00 15 3 31 110° O
Mi, 21.11. 1:00 18 3 25 120° SO
Di, 20.11. 19:00 11 2 14 50° NO
Di, 20.11. 13:00 7 2 25 360° N
Di, 20.11. 7:00 15 3 26 70° O
Di, 20.11. 1:00 6 1 26 60° NO
Mo, 19.11. 19:00 13 3 33 70° O
Mo, 19.11. 13:00 19 3 41 50° NO
Ortszeit Stärke Spitze Richtung
km/h Bft. km/h Grad Sektor
Mi, 21.11. 12:30 7 2 11 50° NO
Mi, 21.11. 12:20 7 2 - 50° NO
Mi, 21.11. 12:10 7 2 - 50° NO
Mi, 21.11. 12:00 7 2 11 60° NO
Mi, 21.11. 11:50 7 2 - 60° NO
Mi, 21.11. 11:40 7 2 - 50° NO
Mi, 21.11. 11:30 6 1 11 40° NO
Mi, 21.11. 11:00 4 1 11 50° NO
Mi, 21.11. 10:30 4 1 11 60° NO
Mi, 21.11. 10:00 13 3 19 60° NO
Mi, 21.11. 9:30 7 2 14 50° NO
Ortszeit Untergrenze Bedeckung Gattung
total tief tief mittel hoch
Mi, 21.11. 7:00 8400 m 0/8 0/8 - - -
Mi, 21.11. 1:00 - 0/8 0/8 - - -
Di, 20.11. 19:00 - 0/8 0/8 - - -
Di, 20.11. 13:00 120 m 5/8 5/8 Sc - -
Di, 20.11. 7:00 <30 m 8/8 8/8 - - -
Di, 20.11. 1:00 <30 m 8/8 8/8 - - -
Mo, 19.11. 19:00 <30 m 8/8 8/8 - - -
Mo, 19.11. 13:00 <30 m 8/8 8/8 - - -
Ortszeit Bedeckungsgrad in Achtel und Wolkenuntergrenze
Mi, 21.11. 12:30 8
Mi, 21.11. 12:20 8(<30m)
Mi, 21.11. 12:10 8(<30m)
Mi, 21.11. 12:00 8(<30m)
Mi, 21.11. 11:50 8(<30m)
Mi, 21.11. 11:40 8(<30m)
Mi, 21.11. 11:30 8(<30m)
Mi, 21.11. 11:00 8(<30m)
Mi, 21.11. 10:30 8(<30m)
Mi, 21.11. 10:00 8(<30m)
Mi, 21.11. 9:30 8(<30m)
Ortszeit Stationsdruck (hPa) Tendenz (hPa in 3 Std.)
Mi, 21.11. 7:00 896 + 1,0
Mi, 21.11. 1:00 895 + 0,6
Di, 20.11. 19:00 893 + 1,8
Di, 20.11. 13:00 890 + 0,3
Di, 20.11. 7:00 889 - 0,8
Di, 20.11. 1:00 892 - 0,9
Mo, 19.11. 19:00 893 - 0,5
Mo, 19.11. 13:00 894 - 1,5
Ortszeit Stationsdruck (hPa) Tendenz (hPa in 3 Std.)
Mi, 21.11. 12:30 898 + 0,7
Mi, 21.11. 12:20 898 keine Meldung
Mi, 21.11. 12:10 898 keine Meldung
Mi, 21.11. 12:00 898 + 0,7
Mi, 21.11. 11:50 898 keine Meldung
Mi, 21.11. 11:40 898 keine Meldung
Mi, 21.11. 11:30 898 + 0,8
Mi, 21.11. 11:00 898 + 1,1
Mi, 21.11. 10:30 898 + 1,2
Mi, 21.11. 10:00 898 + 1,2
Mi, 21.11. 9:30 898 + 1,3
Ortszeit Schneehöhe (cm)
Mi, 21.11. 7:00 4
Mi, 21.11. 1:00 4
Di, 20.11. 19:00 0
Di, 20.11. 13:00 0
Di, 20.11. 7:00 4
Di, 20.11. 1:00 4
Mo, 19.11. 19:00 4
Mo, 19.11. 13:00 5
Ortszeit Schneehöhe (cm)
Mi, 21.11. 12:30 0
Mi, 21.11. 12:20 0
Mi, 21.11. 12:10 0
Mi, 21.11. 12:00 0
Mi, 21.11. 11:50 0
Mi, 21.11. 11:40 0
Mi, 21.11. 11:30 0
Mi, 21.11. 11:00 0
Mi, 21.11. 10:30 0
Mi, 21.11. 10:00 0
Mi, 21.11. 9:30 0
Link zu dieser Seite / Seite empfehlen

Das Wetter in ...